createdAt,value
2022-11-19T00:01:13.832Z,6.53
2022-11-19T00:03:41.552Z,6.43
2022-11-19T00:06:09.832Z,6.00
2022-11-19T00:08:36.873Z,5.90
2022-11-19T00:11:42.594Z,5.60
2022-11-19T00:14:12.428Z,5.50
2022-11-19T00:16:39.750Z,5.07
2022-11-19T00:19:06.790Z,5.18
2022-11-19T00:21:33.432Z,5.00
2022-11-19T00:24:00.209Z,5.25
2022-11-19T00:26:27.026Z,4.75
2022-11-19T00:28:55.378Z,4.05
2022-11-19T00:31:22.485Z,4.70
2022-11-19T00:33:50.589Z,4.00
2022-11-19T00:36:17.770Z,4.00
2022-11-19T00:38:44.413Z,4.85
2022-11-19T00:41:11.304Z,6.07
2022-11-19T00:43:47.804Z,5.50
2022-11-19T00:46:29.660Z,4.82
2022-11-19T00:48:58.308Z,5.00
2022-11-19T00:51:27.920Z,5.25
2022-11-19T00:53:55.164Z,5.43
2022-11-19T00:56:24.297Z,6.00
2022-11-19T00:58:51.555Z,6.70
2022-11-19T01:01:20.153Z,7.28
2022-11-19T01:03:46.938Z,7.00
2022-11-19T01:06:19.142Z,7.35
2022-11-19T01:08:47.791Z,6.80
2022-11-19T01:11:17.294Z,6.63
2022-11-19T01:13:44.045Z,7.63
2022-11-19T01:16:14.582Z,7.95
2022-11-19T01:18:42.944Z,7.97
2022-11-19T01:21:11.527Z,7.97
2022-11-19T01:23:39.615Z,7.68
2022-11-19T01:26:06.452Z,7.93
2022-11-19T01:28:33.801Z,8.15
2022-11-19T01:31:00.744Z,8.00
2022-11-19T01:33:27.845Z,8.07
2022-11-19T01:36:02.636Z,8.15
2022-11-19T01:38:30.302Z,7.53
2022-11-19T01:40:57.441Z,7.88
2022-11-19T01:43:52.130Z,8.05
2022-11-19T01:46:24.051Z,7.80
2022-11-19T01:48:55.272Z,8.73
2022-11-19T01:51:35.505Z,8.07
2022-11-19T01:54:10.995Z,8.70
2022-11-19T01:56:37.734Z,9.95
2022-11-19T01:59:11.117Z,8.65
2022-11-19T02:01:37.770Z,9.13
2022-11-19T02:04:07.023Z,9.13
2022-11-19T02:06:34.221Z,9.77
2022-11-19T02:09:00.852Z,9.05
2022-11-19T02:11:39.319Z,8.52
2022-11-19T02:14:21.745Z,7.47
2022-11-19T02:17:14.519Z,7.22
2022-11-19T02:20:20.254Z,6.60
2022-11-19T02:23:25.750Z,6.88
2022-11-19T02:26:04.630Z,7.05
2022-11-19T02:28:40.136Z,6.13
2022-11-19T02:31:24.153Z,5.43
2022-11-19T02:34:02.117Z,4.93
2022-11-19T02:36:40.933Z,5.78
2022-11-19T02:39:30.819Z,5.00
2022-11-19T02:42:05.229Z,5.13
2022-11-19T02:44:56.268Z,4.25
2022-11-19T02:47:28.905Z,4.68
2022-11-19T02:50:00.910Z,4.32
2022-11-19T02:52:28.590Z,4.00
2022-11-19T02:54:55.392Z,4.38
2022-11-19T02:57:22.039Z,4.15
2022-11-19T03:00:14.736Z,4.07
2022-11-19T03:03:11.388Z,4.25
2022-11-19T03:05:44.235Z,3.88
2022-11-19T03:08:11.133Z,3.88
2022-11-19T03:10:58.069Z,4.25
2022-11-19T03:13:47.794Z,3.58
2022-11-19T03:19:10.398Z,2.75
2022-11-19T03:21:38.862Z,2.97
2022-11-19T03:24:10.955Z,2.67
2022-11-19T03:26:42.720Z,3.30
2022-11-19T03:29:13.279Z,3.30
2022-11-19T03:31:46.783Z,2.58
2022-11-19T03:34:18.284Z,3.63
2022-11-19T03:36:48.108Z,3.63
2022-11-19T03:41:46.563Z,3.63
2022-11-19T03:44:19.740Z,3.90
2022-11-19T03:46:49.922Z,4.00
2022-11-19T03:49:21.837Z,3.97
2022-11-19T03:51:54.016Z,4.88
2022-11-19T03:54:20.802Z,4.65
2022-11-19T03:56:48.912Z,4.60
2022-11-19T03:59:16.760Z,5.18
2022-11-19T04:01:47.094Z,4.55
2022-11-19T04:04:37.173Z,5.20
2022-11-19T04:07:22.104Z,5.03
2022-11-19T04:09:49.452Z,4.78
2022-11-19T04:12:24.423Z,4.43
2022-11-19T04:14:51.420Z,4.55
2022-11-19T04:17:19.216Z,4.40
2022-11-19T04:19:46.772Z,5.10
2022-11-19T04:22:13.384Z,6.40
2022-11-19T04:24:40.058Z,6.53
2022-11-19T04:27:06.677Z,6.13
2022-11-19T04:29:33.379Z,5.75
2022-11-19T04:32:00.094Z,6.50
2022-11-19T04:34:26.812Z,6.45
2022-11-19T04:36:53.446Z,6.43
2022-11-19T04:39:20.350Z,6.95
2022-11-19T04:41:47.258Z,6.32
2022-11-19T04:44:13.843Z,6.03
2022-11-19T04:46:40.508Z,6.43
2022-11-19T04:49:07.160Z,5.88
2022-11-19T04:51:33.750Z,6.43
2022-11-19T04:54:00.422Z,6.45
2022-11-19T04:56:27.156Z,7.07
2022-11-19T04:58:53.804Z,5.70
2022-11-19T05:01:20.957Z,6.72
2022-11-19T05:03:48.514Z,6.18
2022-11-19T05:06:15.149Z,6.45
2022-11-19T05:08:42.006Z,6.47
2022-11-19T05:11:08.723Z,6.57
2022-11-19T05:13:35.450Z,5.95
2022-11-19T05:16:02.286Z,7.13
2022-11-19T05:18:28.972Z,6.07
2022-11-19T05:20:55.720Z,6.47
2022-11-19T05:23:22.408Z,7.50
2022-11-19T05:25:49.104Z,7.13
2022-11-19T05:28:15.804Z,6.43
2022-11-19T05:30:42.407Z,6.45
2022-11-19T05:33:09.208Z,8.07
2022-11-19T05:35:35.881Z,6.72
2022-11-19T05:38:02.585Z,7.50
2022-11-19T05:40:29.202Z,7.20
2022-11-19T05:42:55.779Z,7.35
2022-11-19T05:45:22.609Z,7.32
2022-11-19T05:47:54.688Z,6.70
2022-11-19T05:50:21.343Z,6.70
2022-11-19T05:52:48.045Z,7.80
2022-11-19T05:55:14.794Z,7.00
2022-11-19T05:57:41.423Z,6.90
2022-11-19T06:00:09.217Z,7.03
2022-11-19T06:02:35.865Z,7.78
2022-11-19T06:05:02.683Z,7.65
2022-11-19T06:07:29.387Z,7.85
2022-11-19T06:09:56.034Z,7.65
2022-11-19T06:12:22.939Z,7.55
2022-11-19T06:14:49.585Z,7.50
2022-11-19T06:17:16.292Z,8.65
2022-11-19T06:19:42.906Z,8.27
2022-11-19T06:22:09.965Z,7.93
2022-11-19T06:24:36.716Z,7.95
2022-11-19T06:27:03.466Z,8.43
2022-11-19T06:29:30.118Z,8.80
2022-11-19T06:31:56.828Z,8.50
2022-11-19T06:34:23.398Z,7.85
2022-11-19T06:36:50.865Z,8.73
2022-11-19T06:39:18.471Z,9.75
2022-11-19T06:41:45.447Z,8.13
2022-11-19T06:44:12.040Z,8.73
2022-11-19T06:46:38.827Z,10.07
2022-11-19T06:49:05.878Z,8.45
2022-11-19T06:51:32.977Z,8.10
2022-11-19T06:53:59.628Z,8.65
2022-11-19T06:56:26.270Z,9.15
2022-11-19T06:58:57.026Z,8.35
2022-11-19T07:01:23.689Z,10.00
2022-11-19T07:03:50.444Z,8.95
2022-11-19T07:06:17.065Z,10.02
2022-11-19T07:08:43.668Z,9.27
2022-11-19T07:11:25.768Z,10.43
2022-11-19T07:13:59.777Z,9.70
2022-11-19T07:16:29.957Z,10.38
2022-11-19T07:18:58.515Z,9.90
2022-11-19T07:21:25.286Z,9.75
2022-11-19T07:23:52.177Z,10.25
2022-11-19T07:26:18.862Z,9.15
2022-11-19T07:28:45.460Z,10.32
2022-11-19T07:31:12.185Z,10.27
2022-11-19T07:33:39.169Z,10.20
2022-11-19T07:36:07.935Z,9.45
2022-11-19T07:38:37.096Z,10.17
2022-11-19T07:41:24.763Z,10.27
2022-11-19T07:43:51.419Z,9.38
2022-11-19T07:46:18.160Z,9.38
2022-11-19T07:48:44.785Z,9.18
2022-11-19T07:51:11.633Z,9.15
2022-11-19T07:53:38.362Z,8.73
2022-11-19T07:56:05.293Z,8.10
2022-11-19T07:58:32.054Z,8.40
2022-11-19T08:00:58.682Z,7.90
2022-11-19T08:03:25.310Z,6.18
2022-11-19T08:05:51.945Z,6.97
2022-11-19T08:08:18.554Z,6.70
2022-11-19T08:10:45.247Z,6.18
2022-11-19T08:13:11.834Z,6.10
2022-11-19T08:15:38.443Z,5.60
2022-11-19T08:18:15.705Z,5.68
2022-11-19T08:20:43.921Z,5.07
2022-11-19T08:23:11.917Z,4.68
2022-11-19T08:25:39.193Z,5.60
2022-11-19T08:28:06.138Z,4.43
2022-11-19T08:30:33.813Z,3.97
2022-11-19T08:33:00.660Z,4.80
2022-11-19T08:35:27.547Z,5.03
2022-11-19T08:37:54.260Z,3.92
2022-11-19T08:40:20.960Z,3.97
2022-11-19T08:42:59.808Z,3.97
2022-11-19T08:45:27.334Z,4.60
2022-11-19T08:47:55.266Z,4.15
2022-11-19T08:50:22.647Z,3.70
2022-11-19T08:52:57.188Z,3.90
2022-11-19T08:55:24.864Z,4.35
2022-11-19T08:57:51.495Z,4.07
2022-11-19T09:00:20.101Z,4.32
2022-11-19T09:02:47.212Z,4.60
2022-11-19T09:05:14.788Z,5.28
2022-11-19T09:07:41.810Z,4.95
2022-11-19T09:10:09.806Z,5.47
2022-11-19T09:12:36.650Z,6.20
2022-11-19T09:15:04.413Z,6.10
2022-11-19T09:17:31.356Z,5.95
2022-11-19T09:19:58.019Z,6.45
2022-11-19T09:22:24.678Z,6.38
2022-11-19T09:24:51.414Z,6.57
2022-11-19T09:27:18.125Z,6.20
2022-11-19T09:29:44.755Z,6.75
2022-11-19T09:32:11.506Z,6.30
2022-11-19T09:34:40.630Z,7.45
2022-11-19T09:37:10.876Z,7.05
2022-11-19T09:39:38.244Z,6.60
2022-11-19T09:42:16.998Z,6.00
2022-11-19T09:45:02.178Z,6.20
2022-11-19T09:47:40.197Z,6.65
2022-11-19T09:50:19.488Z,6.50
2022-11-19T09:53:16.877Z,6.70
2022-11-19T09:55:46.648Z,7.00
2022-11-19T10:00:59.592Z,6.75
2022-11-19T10:03:32.825Z,7.18
2022-11-19T10:06:30.601Z,7.40
2022-11-19T10:09:19.238Z,7.72
2022-11-19T10:12:02.738Z,7.35
2022-11-19T10:15:10.900Z,8.38
2022-11-19T10:17:49.537Z,7.97
2022-11-19T10:20:28.457Z,8.48
2022-11-19T10:23:17.540Z,7.15
2022-11-19T10:25:47.190Z,9.65
2022-11-19T10:28:21.931Z,8.88
2022-11-19T10:30:50.975Z,9.63
2022-11-19T10:33:17.670Z,9.65
2022-11-19T10:35:51.628Z,10.35
2022-11-19T10:38:27.090Z,10.02
2022-11-19T10:41:02.563Z,11.60
2022-11-19T10:43:36.881Z,10.20
2022-11-19T10:46:06.176Z,10.68
2022-11-19T10:48:43.257Z,10.75
2022-11-19T10:51:14.010Z,9.90
2022-11-19T10:53:42.425Z,9.23
2022-11-19T10:56:19.567Z,10.07
2022-11-19T10:58:54.269Z,10.43
2022-11-19T11:01:34.046Z,10.82
2022-11-19T11:04:06.931Z,10.52
2022-11-19T11:06:54.666Z,10.55
2022-11-19T11:09:39.478Z,11.18
2022-11-19T11:12:41.156Z,11.90
2022-11-19T11:15:21.319Z,10.45
2022-11-19T11:17:59.541Z,11.05
2022-11-19T11:20:28.975Z,10.38
2022-11-19T11:23:33.231Z,11.07
2022-11-19T11:26:06.795Z,11.15
2022-11-19T11:28:34.383Z,9.57
2022-11-19T11:31:09.309Z,11.77
2022-11-19T11:33:39.291Z,10.95
2022-11-19T11:36:13.717Z,11.55
2022-11-19T11:38:43.617Z,11.18
2022-11-19T11:42:02.412Z,12.65
2022-11-19T11:44:22.785Z,11.55
2022-11-19T11:46:52.370Z,12.07
2022-11-19T11:49:28.211Z,11.38
2022-11-19T11:52:04.916Z,12.23
2022-11-19T11:54:31.670Z,12.45
2022-11-19T11:57:19.388Z,12.95
2022-11-19T11:59:46.313Z,11.48
2022-11-19T12:02:26.951Z,11.70
2022-11-19T12:04:55.655Z,12.15
2022-11-19T12:07:40.462Z,13.05
2022-11-19T12:10:26.117Z,12.93
2022-11-19T12:13:08.804Z,14.10
2022-11-19T12:15:47.567Z,13.23
2022-11-19T12:18:38.261Z,13.53
2022-11-19T12:21:17.007Z,13.63
2022-11-19T12:24:10.923Z,13.23
2022-11-19T12:27:19.799Z,13.13
2022-11-19T12:30:03.548Z,13.77
2022-11-19T12:32:39.680Z,14.88
2022-11-19T12:35:37.377Z,14.00
2022-11-19T12:38:25.506Z,14.75
2022-11-19T12:41:39.973Z,13.55
2022-11-19T12:44:34.460Z,15.02
2022-11-19T12:47:18.287Z,14.13
2022-11-19T12:49:44.951Z,13.80
2022-11-19T12:52:50.437Z,14.10
2022-11-19T12:55:59.430Z,15.85
2022-11-19T12:58:38.784Z,14.07
2022-11-19T13:01:13.655Z,15.30
2022-11-19T13:03:47.771Z,14.48
2022-11-19T13:06:22.322Z,14.77
2022-11-19T13:08:58.161Z,14.35
2022-11-19T13:11:36.556Z,15.02
2022-11-19T13:14:11.821Z,15.20
2022-11-19T13:16:41.243Z,16.38
2022-11-19T13:19:29.358Z,14.32
2022-11-19T13:22:07.395Z,16.08
2022-11-19T13:24:45.476Z,16.02
2022-11-19T13:27:23.011Z,16.08
2022-11-19T13:30:20.447Z,16.88
2022-11-19T13:33:11.712Z,16.27
2022-11-19T13:35:47.199Z,16.08
2022-11-19T13:38:22.698Z,16.52
2022-11-19T13:41:10.926Z,16.02
2022-11-19T13:43:56.169Z,16.30
2022-11-19T13:46:36.941Z,16.77
2022-11-19T13:49:13.898Z,17.38
2022-11-19T13:51:44.648Z,17.48
2022-11-19T13:54:25.520Z,18.48
2022-11-19T13:56:56.157Z,19.05
2022-11-19T13:59:30.090Z,17.25
2022-11-19T14:02:14.623Z,17.23
2022-11-19T14:05:26.131Z,18.35
2022-11-19T14:08:21.835Z,18.15
2022-11-19T14:11:24.413Z,19.25
2022-11-19T14:14:32.986Z,19.23
2022-11-19T14:17:32.313Z,19.85
2022-11-19T14:20:17.536Z,20.05
2022-11-19T14:23:14.288Z,21.88
2022-11-19T14:26:02.546Z,20.35
2022-11-19T14:28:49.954Z,19.67
2022-11-19T14:31:18.924Z,19.02
2022-11-19T14:33:48.319Z,19.65
2022-11-19T14:36:38.124Z,20.55
2022-11-19T14:39:12.549Z,20.50
2022-11-19T14:41:43.884Z,20.73
2022-11-19T14:44:32.705Z,19.13
2022-11-19T14:47:21.940Z,19.60
2022-11-19T14:49:50.566Z,20.48
2022-11-19T14:52:25.129Z,20.60
2022-11-19T14:55:20.176Z,22.75
2022-11-19T14:58:00.712Z,22.48
2022-11-19T15:00:41.334Z,19.42
2022-11-19T15:03:24.033Z,19.73
2022-11-19T15:05:51.147Z,20.23
2022-11-19T15:08:17.920Z,21.23
2022-11-19T15:11:05.422Z,20.50
2022-11-19T15:13:40.725Z,20.33
2022-11-19T15:16:16.901Z,21.15
2022-11-19T15:18:43.475Z,21.13
2022-11-19T15:21:40.290Z,19.65
2022-11-19T15:24:30.650Z,19.67
2022-11-19T15:27:33.953Z,20.25
2022-11-19T15:30:10.129Z,19.48
2022-11-19T15:33:01.202Z,20.90
2022-11-19T15:35:56.851Z,18.08
2022-11-19T15:38:23.507Z,19.23
2022-11-19T15:40:53.243Z,19.92
2022-11-19T15:46:09.648Z,19.77
2022-11-19T15:48:54.989Z,20.85
2022-11-19T15:51:22.032Z,18.88
2022-11-19T15:53:59.850Z,18.10
2022-11-19T15:56:31.891Z,19.30
2022-11-19T15:59:00.274Z,18.70
2022-11-19T16:01:27.259Z,20.35
2022-11-19T16:03:54.056Z,19.80
2022-11-19T16:06:27.180Z,19.20
2022-11-19T16:08:55.546Z,20.20
2022-11-19T16:11:43.796Z,18.63
2022-11-19T16:14:47.768Z,21.10
2022-11-19T16:17:33.441Z,21.08
2022-11-19T16:20:12.497Z,20.85
2022-11-19T16:22:50.086Z,19.70
2022-11-19T16:25:34.884Z,19.75
2022-11-19T16:28:05.615Z,20.73
2022-11-19T16:30:42.473Z,20.27
2022-11-19T16:33:16.307Z,19.83
2022-11-19T16:35:43.779Z,22.05
2022-11-19T16:41:03.779Z,21.05
2022-11-19T16:43:30.714Z,20.05
2022-11-19T16:45:58.162Z,19.65
2022-11-19T16:48:49.261Z,20.38
2022-11-19T16:51:36.815Z,20.55
2022-11-19T16:54:05.906Z,20.90
2022-11-19T16:56:58.999Z,19.40
2022-11-19T16:59:25.910Z,20.30
2022-11-19T17:01:59.892Z,19.27
2022-11-19T17:04:30.603Z,20.08
2022-11-19T17:06:58.935Z,19.80
2022-11-19T17:09:42.265Z,19.98
2022-11-19T17:12:27.424Z,20.98
2022-11-19T17:15:02.634Z,19.80
2022-11-19T17:17:34.330Z,21.02
2022-11-19T17:20:43.730Z,19.58
2022-11-19T17:23:18.332Z,19.30
2022-11-19T17:25:57.101Z,20.42
2022-11-19T17:28:37.996Z,19.90
2022-11-19T17:31:17.900Z,19.42
2022-11-19T17:33:54.766Z,19.00
2022-11-19T17:36:22.383Z,20.33
2022-11-19T17:38:49.652Z,20.17
2022-11-19T17:41:40.526Z,22.38
2022-11-19T17:44:33.550Z,18.83
2022-11-19T17:47:24.244Z,20.05
2022-11-19T17:49:51.884Z,20.98
2022-11-19T17:52:30.336Z,19.42
2022-11-19T17:55:16.802Z,17.75
2022-11-19T17:57:43.666Z,18.02
2022-11-19T18:00:11.066Z,19.88
2022-11-19T18:02:37.925Z,19.35
2022-11-19T18:05:15.102Z,18.50
2022-11-19T18:07:42.052Z,19.65
2022-11-19T18:10:09.403Z,19.02
2022-11-19T18:12:36.225Z,19.00
2022-11-19T18:15:03.348Z,19.15
2022-11-19T18:17:30.041Z,20.20
2022-11-19T18:19:56.832Z,19.20
2022-11-19T18:22:23.623Z,17.60
2022-11-19T18:24:51.789Z,20.05
2022-11-19T18:27:18.510Z,20.60
2022-11-19T18:29:45.257Z,19.35
2022-11-19T18:32:15.236Z,18.88
2022-11-19T18:34:42.259Z,20.40
2022-11-19T18:37:08.966Z,19.60
2022-11-19T18:39:35.599Z,25.75
2022-11-19T18:42:02.365Z,21.88
2022-11-19T18:44:34.868Z,19.70
2022-11-19T18:47:07.180Z,20.50
2022-11-19T18:49:34.942Z,22.75
2022-11-19T18:52:06.215Z,21.65
2022-11-19T18:54:33.955Z,19.25
2022-11-19T18:57:00.931Z,22.75
2022-11-19T18:59:27.649Z,21.45
2022-11-19T19:01:55.916Z,19.75
2022-11-19T19:04:23.174Z,19.77
2022-11-19T19:06:50.232Z,20.30
2022-11-19T19:09:20.190Z,19.15
2022-11-19T19:12:12.528Z,19.88
2022-11-19T19:14:39.930Z,19.98
2022-11-19T19:17:06.533Z,19.65
2022-11-19T19:19:33.242Z,21.38
2022-11-19T19:22:00.491Z,25.30
2022-11-19T19:24:27.335Z,21.13
2022-11-19T19:26:54.064Z,22.95
2022-11-19T19:29:20.910Z,20.20
2022-11-19T19:31:47.805Z,21.77
2022-11-19T19:34:14.604Z,20.92
2022-11-19T19:36:46.487Z,21.75
2022-11-19T19:39:16.959Z,133.20
2022-11-19T19:41:43.848Z,146.02
2022-11-19T19:44:10.948Z,39.67
2022-11-19T19:46:37.640Z,22.33
2022-11-19T19:49:04.353Z,22.67
2022-11-19T19:51:32.502Z,23.92
2022-11-19T19:53:59.419Z,21.73
2022-11-19T19:56:28.143Z,21.20
2022-11-19T19:58:55.617Z,21.85
2022-11-19T20:01:30.682Z,20.77
2022-11-19T20:04:06.131Z,21.50
2022-11-19T20:06:33.481Z,20.85
2022-11-19T20:09:03.210Z,21.48
2022-11-19T20:11:33.698Z,20.48
2022-11-19T20:14:00.398Z,20.42
2022-11-19T20:16:32.562Z,21.00
2022-11-19T20:19:00.536Z,19.92
2022-11-19T20:21:29.490Z,18.95
2022-11-19T20:23:57.428Z,20.50
2022-11-19T20:26:27.813Z,20.75
2022-11-19T20:29:05.579Z,21.25
2022-11-19T20:31:33.603Z,22.55
2022-11-19T20:34:02.034Z,32.45
2022-11-19T20:36:31.068Z,24.90
2022-11-19T20:38:58.791Z,21.08
2022-11-19T20:41:45.424Z,21.60
2022-11-19T20:44:20.082Z,19.20
2022-11-19T20:46:51.765Z,23.27
2022-11-19T20:49:20.881Z,20.13
2022-11-19T20:51:48.121Z,19.55
2022-11-19T20:54:15.258Z,21.02
2022-11-19T20:56:42.246Z,20.58
2022-11-19T20:59:09.773Z,19.20
2022-11-19T21:01:36.686Z,20.30
2022-11-19T21:04:03.865Z,20.20
2022-11-19T21:06:31.029Z,20.05
2022-11-19T21:08:57.750Z,19.67
2022-11-19T21:11:25.188Z,109.65
2022-11-19T21:13:51.909Z,41.17
2022-11-19T21:16:22.087Z,21.83
2022-11-19T21:18:49.296Z,20.27
2022-11-19T21:21:18.273Z,20.27
2022-11-19T21:23:45.492Z,20.85
2022-11-19T21:26:18.159Z,20.00
2022-11-19T21:28:49.115Z,19.60
2022-11-19T21:31:17.158Z,20.58
2022-11-19T21:33:43.767Z,20.65
2022-11-19T21:36:11.565Z,21.25
2022-11-19T21:38:38.383Z,20.40
2022-11-19T21:41:05.680Z,19.83
2022-11-19T21:43:32.825Z,20.80
2022-11-19T21:45:59.567Z,22.00
2022-11-19T21:48:27.029Z,20.83
2022-11-19T21:50:53.947Z,26.52
2022-11-19T21:53:20.917Z,23.10
2022-11-19T21:55:48.147Z,23.13
2022-11-19T21:58:15.812Z,57.58
2022-11-19T22:00:43.919Z,26.20
2022-11-19T22:03:10.716Z,20.17
2022-11-19T22:05:37.330Z,22.23
2022-11-19T22:08:04.118Z,19.48
2022-11-19T22:10:31.091Z,20.75
2022-11-19T22:12:58.773Z,24.83
2022-11-19T22:15:26.897Z,23.83
2022-11-19T22:17:53.823Z,29.50
2022-11-19T22:20:20.598Z,21.50
2022-11-19T22:22:47.414Z,22.40
2022-11-19T22:25:14.343Z,23.50
2022-11-19T22:27:41.835Z,21.40
2022-11-19T22:30:10.150Z,22.33
2022-11-19T22:32:37.114Z,21.92
2022-11-19T22:35:04.748Z,23.60
2022-11-19T22:37:31.993Z,23.73
2022-11-19T22:39:58.837Z,21.52
2022-11-19T22:42:25.573Z,25.85
2022-11-19T22:44:52.984Z,23.30
2022-11-19T22:47:19.815Z,23.38
2022-11-19T22:49:46.635Z,21.95
2022-11-19T22:52:15.567Z,23.48
2022-11-19T22:54:42.253Z,21.65
2022-11-19T22:57:09.742Z,23.02
2022-11-19T22:59:36.599Z,20.67
2022-11-19T23:02:03.521Z,22.40
2022-11-19T23:04:30.170Z,23.27
2022-11-19T23:06:57.045Z,21.67
2022-11-19T23:09:23.985Z,22.52
2022-11-19T23:12:09.504Z,23.33
2022-11-19T23:14:36.244Z,24.80
2022-11-19T23:17:02.868Z,25.65
2022-11-19T23:19:29.541Z,23.58
2022-11-19T23:21:56.237Z,26.80
2022-11-19T23:24:22.922Z,26.90
2022-11-19T23:26:49.736Z,24.33
2022-11-19T23:29:16.387Z,23.77
2022-11-19T23:31:43.125Z,30.77
2022-11-19T23:34:09.970Z,25.25
2022-11-19T23:36:39.798Z,24.40
2022-11-19T23:39:10.225Z,23.83
2022-11-19T23:41:37.030Z,23.73
2022-11-19T23:44:04.112Z,28.00
2022-11-19T23:46:35.818Z,26.35
2022-11-19T23:49:03.801Z,25.30
2022-11-19T23:51:35.385Z,25.10
2022-11-19T23:54:02.539Z,26.88
2022-11-19T23:56:31.975Z,24.77
2022-11-19T23:59:06.111Z,25.77
